createdAt,value
2019-05-05T00:00:35.209Z,91.50
2019-05-05T00:03:34.273Z,91.60
2019-05-05T00:06:22.442Z,91.60
2019-05-05T00:09:10.498Z,91.40
2019-05-05T00:12:00.081Z,91.50
2019-05-05T00:14:54.687Z,91.60
2019-05-05T00:17:45.016Z,91.70
2019-05-05T00:20:34.372Z,91.70
2019-05-05T00:23:22.452Z,92.10
2019-05-05T00:26:10.403Z,91.70
2019-05-05T00:28:58.470Z,91.60
2019-05-05T00:31:46.188Z,91.60
2019-05-05T00:34:34.974Z,91.50
2019-05-05T00:37:25.467Z,91.10
2019-05-05T00:40:14.229Z,91.30
2019-05-05T00:43:02.165Z,91.20
2019-05-05T00:45:51.680Z,91.30
2019-05-05T00:48:44.483Z,91.30
2019-05-05T00:51:32.225Z,91.30
2019-05-05T00:54:19.889Z,91.20
2019-05-05T00:57:08.009Z,91.00
2019-05-05T00:59:55.641Z,91.10
2019-05-05T01:02:45.192Z,90.80
2019-05-05T01:05:49.864Z,90.90
2019-05-05T01:08:37.608Z,90.90
2019-05-05T01:11:25.926Z,90.70
2019-05-05T01:14:14.407Z,90.70
2019-05-05T01:17:02.493Z,90.60
2019-05-05T01:20:01.136Z,90.80
2019-05-05T01:22:39.993Z,90.80
2019-05-05T01:25:28.035Z,90.70
2019-05-05T01:28:15.722Z,90.60
2019-05-05T01:31:05.688Z,90.60
2019-05-05T01:33:55.260Z,90.60
2019-05-05T01:36:45.142Z,90.60
2019-05-05T01:39:40.858Z,90.50
2019-05-05T01:42:28.462Z,90.60
2019-05-05T01:45:16.102Z,90.60
2019-05-05T01:48:04.874Z,90.30
2019-05-05T01:50:54.395Z,90.40
2019-05-05T01:53:44.143Z,90.40
2019-05-05T01:56:31.805Z,90.50
2019-05-05T01:59:19.736Z,90.40
2019-05-05T02:02:07.649Z,90.00
2019-05-05T02:04:55.534Z,90.10
2019-05-05T02:07:44.858Z,89.50
2019-05-05T02:10:34.930Z,89.60
2019-05-05T02:13:22.316Z,89.60
2019-05-05T02:16:10.253Z,89.40
2019-05-05T02:18:58.180Z,89.10
2019-05-05T02:21:45.933Z,89.10
2019-05-05T02:24:35.311Z,89.20
2019-05-05T02:27:25.218Z,88.60
2019-05-05T02:30:26.853Z,89.20
2019-05-05T02:33:15.962Z,89.40
2019-05-05T02:36:05.568Z,89.30
2019-05-05T02:38:56.462Z,89.40
2019-05-05T02:41:45.210Z,89.40
2019-05-05T02:44:34.918Z,89.20
2019-05-05T02:47:45.105Z,89.00
2019-05-05T02:50:51.089Z,89.50
2019-05-05T02:53:37.053Z,89.40
2019-05-05T02:56:29.609Z,89.90
2019-05-05T02:59:23.679Z,90.10
2019-05-05T03:02:14.485Z,89.90
2019-05-05T03:05:04.187Z,90.00
2019-05-05T03:07:54.420Z,90.10
2019-05-05T03:10:44.313Z,90.30
2019-05-05T03:13:33.768Z,90.40
2019-05-05T03:16:24.020Z,90.40
2019-05-05T03:19:14.261Z,90.40
2019-05-05T03:22:03.648Z,90.50
2019-05-05T03:24:54.103Z,90.20
2019-05-05T03:27:44.431Z,90.30
2019-05-05T03:30:35.339Z,90.20
2019-05-05T03:33:24.833Z,90.20
2019-05-05T03:36:14.013Z,90.30
2019-05-05T03:39:02.405Z,90.50
2019-05-05T03:41:51.765Z,90.50
2019-05-05T03:44:43.968Z,90.50
2019-05-05T03:47:33.681Z,90.40
2019-05-05T03:50:23.747Z,90.70
2019-05-05T03:53:14.004Z,90.90
2019-05-05T03:56:03.743Z,91.00
2019-05-05T03:58:54.110Z,91.30
2019-05-05T04:01:58.341Z,91.30
2019-05-05T04:04:47.668Z,91.30
2019-05-05T04:07:36.045Z,91.20
2019-05-05T04:10:24.510Z,91.50
2019-05-05T04:13:13.911Z,91.50
2019-05-05T04:16:07.013Z,91.60
2019-05-05T04:18:59.856Z,91.30
2019-05-05T04:21:47.596Z,91.40
2019-05-05T04:24:35.479Z,91.30
2019-05-05T04:27:23.955Z,91.00
2019-05-05T04:30:14.108Z,91.30
2019-05-05T04:33:03.669Z,91.20
2019-05-05T04:35:51.543Z,91.20
2019-05-05T04:38:39.157Z,91.30
2019-05-05T04:41:26.804Z,91.20
2019-05-05T04:44:17.874Z,91.20
2019-05-05T04:47:24.755Z,91.20
2019-05-05T04:50:18.303Z,91.10
2019-05-05T04:53:07.921Z,91.00
2019-05-05T04:55:55.941Z,91.20
2019-05-05T04:58:44.040Z,91.00
2019-05-05T05:01:33.552Z,91.10
2019-05-05T05:04:29.436Z,90.80
2019-05-05T05:07:18.272Z,90.70
2019-05-05T05:10:07.464Z,89.40
2019-05-05T05:12:55.497Z,89.10
2019-05-05T05:15:44.641Z,88.60
2019-05-05T05:18:34.400Z,88.00
2019-05-05T05:21:23.725Z,87.40
2019-05-05T05:24:11.881Z,86.00
2019-05-05T05:26:59.977Z,85.70
2019-05-05T05:29:47.737Z,86.40
2019-05-05T05:32:35.750Z,85.40
2019-05-05T05:35:24.398Z,84.10
2019-05-05T05:38:14.043Z,83.80
2019-05-05T05:41:09.502Z,83.20
2019-05-05T05:44:03.548Z,81.90
2019-05-05T05:47:03.608Z,82.40
2019-05-05T05:49:54.442Z,80.40
2019-05-05T05:52:43.644Z,80.90
2019-05-05T05:55:31.818Z,80.20
2019-05-05T05:58:19.846Z,79.50
2019-05-05T06:01:07.617Z,78.60
2019-05-05T06:03:55.286Z,78.90
2019-05-05T06:06:43.907Z,78.20
2019-05-05T06:09:31.593Z,78.90
2019-05-05T06:12:19.254Z,79.50
2019-05-05T06:15:07.932Z,76.50
2019-05-05T06:17:56.236Z,75.60
2019-05-05T06:20:44.508Z,74.00
2019-05-05T06:23:34.447Z,73.50
2019-05-05T06:26:24.034Z,73.20
2019-05-05T06:29:14.435Z,73.80
2019-05-05T06:32:21.024Z,73.10
2019-05-05T06:35:13.730Z,73.10
2019-05-05T06:38:01.405Z,73.30
2019-05-05T06:40:59.956Z,73.20
2019-05-05T06:43:51.964Z,71.70
2019-05-05T06:46:44.601Z,71.50
2019-05-05T06:49:34.385Z,70.00
2019-05-05T06:52:22.353Z,68.90
2019-05-05T06:55:10.376Z,68.80
2019-05-05T06:57:57.876Z,69.10
2019-05-05T07:00:45.500Z,71.90
2019-05-05T07:03:33.774Z,69.70
2019-05-05T07:06:23.809Z,68.70
2019-05-05T07:09:11.399Z,69.30
2019-05-05T07:11:59.505Z,71.80
2019-05-05T07:14:47.487Z,71.60
2019-05-05T07:17:35.521Z,68.10
2019-05-05T07:20:24.112Z,68.00
2019-05-05T07:23:14.302Z,69.20
2019-05-05T07:26:01.131Z,69.10
2019-05-05T07:28:49.112Z,68.90
2019-05-05T07:31:37.083Z,70.50
2019-05-05T07:34:26.344Z,71.20
2019-05-05T07:37:14.380Z,68.00
2019-05-05T07:40:04.214Z,68.80
2019-05-05T07:42:54.027Z,67.60
2019-05-05T07:45:41.937Z,66.20
2019-05-05T07:48:29.778Z,67.90
2019-05-05T07:51:17.652Z,64.10
2019-05-05T07:54:05.280Z,64.00
2019-05-05T07:56:53.812Z,64.60
2019-05-05T07:59:41.887Z,62.60
2019-05-05T08:02:29.829Z,62.30
2019-05-05T08:05:17.612Z,64.00
2019-05-05T08:08:05.441Z,63.20
2019-05-05T08:10:54.210Z,63.70
2019-05-05T08:13:44.134Z,63.70
2019-05-05T08:16:49.301Z,61.20
2019-05-05T08:19:54.387Z,60.40
2019-05-05T08:22:44.311Z,61.00
2019-05-05T08:25:40.181Z,59.20
2019-05-05T08:28:28.216Z,57.80
2019-05-05T08:31:20.416Z,58.20
2019-05-05T08:34:08.596Z,58.60
2019-05-05T08:36:59.450Z,55.30
2019-05-05T08:39:45.785Z,55.90
2019-05-05T08:42:33.971Z,55.30
2019-05-05T08:45:24.559Z,56.70
2019-05-05T08:48:11.482Z,57.00
2019-05-05T08:50:59.092Z,57.00
2019-05-05T08:53:48.346Z,57.20
2019-05-05T08:56:36.296Z,58.50
2019-05-05T08:59:24.312Z,57.20
2019-05-05T09:02:12.046Z,57.50
2019-05-05T09:04:59.599Z,57.70
2019-05-05T09:07:47.259Z,54.60
2019-05-05T09:10:35.408Z,54.90
2019-05-05T09:13:24.681Z,57.10
2019-05-05T09:16:14.450Z,55.10
2019-05-05T09:19:04.124Z,55.20
2019-05-05T09:21:53.996Z,55.10
2019-05-05T09:24:55.336Z,53.60
2019-05-05T09:27:51.068Z,53.00
2019-05-05T09:30:47.217Z,52.30
2019-05-05T09:33:35.150Z,50.60
2019-05-05T09:36:24.311Z,51.00
2019-05-05T09:39:13.823Z,51.10
2019-05-05T09:42:03.949Z,51.40
2019-05-05T09:44:51.220Z,50.60
2019-05-05T09:47:39.329Z,51.50
2019-05-05T09:50:27.337Z,52.50
2019-05-05T09:53:15.096Z,50.30
2019-05-05T09:56:04.064Z,51.20
2019-05-05T09:59:25.542Z,52.60
2019-05-05T10:02:13.281Z,53.90
2019-05-05T10:05:03.469Z,55.70
2019-05-05T10:07:51.236Z,56.10
2019-05-05T10:10:38.884Z,55.00
2019-05-05T10:13:26.754Z,55.70
2019-05-05T10:16:14.871Z,56.90
2019-05-05T10:19:04.529Z,54.00
2019-05-05T10:21:52.345Z,52.20
2019-05-05T10:24:48.091Z,51.70
2019-05-05T10:27:44.924Z,50.40
2019-05-05T10:30:26.167Z,51.00
2019-05-05T10:33:14.435Z,50.50
2019-05-05T10:36:02.077Z,51.00
2019-05-05T10:38:54.621Z,49.40
2019-05-05T10:41:44.064Z,50.10
2019-05-05T10:44:33.913Z,53.70
2019-05-05T10:50:08.977Z,52.10
2019-05-05T10:52:56.875Z,51.50
2019-05-05T10:55:45.116Z,52.60
2019-05-05T10:58:33.625Z,53.80
2019-05-05T11:01:23.543Z,54.00
2019-05-05T11:04:11.181Z,55.00
2019-05-05T11:07:00.325Z,50.10
2019-05-05T11:09:48.081Z,45.30
2019-05-05T11:12:36.144Z,43.90
2019-05-05T11:15:24.709Z,45.20
2019-05-05T11:18:14.720Z,47.50
2019-05-05T11:21:09.194Z,47.90
2019-05-05T11:26:44.772Z,47.30
2019-05-05T11:29:32.804Z,48.20
2019-05-05T11:32:39.011Z,44.80
2019-05-05T11:35:30.315Z,44.40
2019-05-05T11:38:18.834Z,44.70
2019-05-05T11:41:10.969Z,43.40
2019-05-05T11:43:59.978Z,44.30
2019-05-05T11:46:47.909Z,43.10
2019-05-05T11:49:35.720Z,43.70
2019-05-05T11:52:23.455Z,44.60
2019-05-05T11:55:14.888Z,40.80
2019-05-05T11:58:03.449Z,40.90
2019-05-05T12:00:54.247Z,41.40
2019-05-05T12:03:41.613Z,41.80
2019-05-05T12:06:29.234Z,41.40
2019-05-05T12:09:18.785Z,38.10
2019-05-05T12:12:06.483Z,38.70
2019-05-05T12:14:54.702Z,38.70
2019-05-05T12:17:44.230Z,39.20
2019-05-05T12:20:36.773Z,36.50
2019-05-05T12:23:24.427Z,37.00
2019-05-05T12:26:20.237Z,37.60
2019-05-05T12:31:56.835Z,38.40
2019-05-05T12:34:44.982Z,39.80
2019-05-05T12:37:34.119Z,45.70
2019-05-05T12:40:22.133Z,46.60
2019-05-05T12:43:09.966Z,48.60
2019-05-05T12:46:08.613Z,47.40
2019-05-05T12:48:58.081Z,49.50
2019-05-05T12:51:45.869Z,49.70
2019-05-05T12:54:33.807Z,48.00
2019-05-05T13:00:09.402Z,45.60
2019-05-05T13:02:57.049Z,40.80
2019-05-05T13:05:45.151Z,41.60
2019-05-05T13:08:33.998Z,44.40
2019-05-05T13:11:23.775Z,36.70
2019-05-05T13:14:14.130Z,37.20
2019-05-05T13:17:03.640Z,31.10
2019-05-05T13:19:53.085Z,33.20
2019-05-05T13:22:45.322Z,30.10
2019-05-05T13:25:37.533Z,32.20
2019-05-05T13:28:25.823Z,32.80
2019-05-05T13:31:14.121Z,30.70
2019-05-05T13:34:01.685Z,30.50
2019-05-05T13:36:49.736Z,29.90
2019-05-05T13:39:38.105Z,31.30
2019-05-05T13:42:25.930Z,33.80
2019-05-05T13:45:21.423Z,35.70
2019-05-05T13:48:11.194Z,36.90
2019-05-05T13:51:06.705Z,36.00
2019-05-05T13:53:54.465Z,36.90
2019-05-05T13:56:44.033Z,37.10
2019-05-05T13:59:33.953Z,34.00
2019-05-05T14:02:21.803Z,36.70
2019-05-05T14:05:10.541Z,35.60
2019-05-05T14:07:58.714Z,34.40
2019-05-05T14:10:46.577Z,36.20
2019-05-05T14:13:34.491Z,36.30
2019-05-05T14:16:22.386Z,38.40
2019-05-05T14:19:10.542Z,38.30
2019-05-05T14:21:58.243Z,36.90
2019-05-05T14:24:47.686Z,37.20
2019-05-05T14:27:35.350Z,37.00
2019-05-05T14:30:28.245Z,37.20
2019-05-05T14:33:17.592Z,38.80
2019-05-05T14:36:07.157Z,39.90
2019-05-05T14:38:56.678Z,39.20
2019-05-05T14:41:44.672Z,38.70
2019-05-05T14:44:34.211Z,40.10
2019-05-05T14:47:21.860Z,41.30
2019-05-05T14:50:10.429Z,42.50
2019-05-05T14:52:58.001Z,40.40
2019-05-05T14:55:45.877Z,39.70
2019-05-05T14:58:33.833Z,40.30
2019-05-05T15:01:21.889Z,40.00
2019-05-05T15:04:11.137Z,38.70
2019-05-05T15:07:16.375Z,39.60
2019-05-05T15:10:14.457Z,40.00
2019-05-05T15:13:06.872Z,40.10
2019-05-05T15:15:54.936Z,39.00
2019-05-05T15:18:42.813Z,40.10
2019-05-05T15:21:30.773Z,40.70
2019-05-05T15:24:18.424Z,41.40
2019-05-05T15:27:06.414Z,43.10
2019-05-05T15:29:54.409Z,44.80
2019-05-05T15:32:43.813Z,42.10
2019-05-05T15:35:33.847Z,42.00
2019-05-05T15:38:21.561Z,41.40
2019-05-05T15:41:09.167Z,40.70
2019-05-05T15:46:44.501Z,40.70
2019-05-05T15:49:32.485Z,41.50
2019-05-05T15:52:20.556Z,42.10
2019-05-05T15:55:09.606Z,42.00
2019-05-05T15:57:57.495Z,42.20
2019-05-05T16:00:45.394Z,41.90
2019-05-05T16:03:33.211Z,41.80
2019-05-05T16:06:21.009Z,42.00
2019-05-05T16:09:08.794Z,41.70
2019-05-05T16:11:56.477Z,41.70
2019-05-05T16:14:46.207Z,39.80
2019-05-05T16:17:54.333Z,38.90
2019-05-05T16:20:44.328Z,41.50
2019-05-05T16:23:37.310Z,42.20
2019-05-05T16:26:24.894Z,42.00
2019-05-05T16:29:33.572Z,43.20
2019-05-05T16:32:22.228Z,43.30
2019-05-05T16:35:11.957Z,41.20
2019-05-05T16:37:59.900Z,40.30
2019-05-05T16:40:47.901Z,41.10
2019-05-05T16:43:37.362Z,40.60
2019-05-05T16:46:25.942Z,40.00
2019-05-05T16:49:14.012Z,38.10
2019-05-05T16:52:04.139Z,38.80
2019-05-05T16:55:09.345Z,38.20
2019-05-05T16:58:07.174Z,41.40
2019-05-05T17:00:54.861Z,41.40
2019-05-05T17:03:45.413Z,42.50
2019-05-05T17:06:32.376Z,43.10
2019-05-05T17:09:20.483Z,43.10
2019-05-05T17:12:11.338Z,42.00
2019-05-05T17:15:22.538Z,42.50
2019-05-05T17:18:33.599Z,41.40
2019-05-05T17:21:23.038Z,41.10
2019-05-05T17:24:11.371Z,41.80
2019-05-05T17:27:00.001Z,42.60
2019-05-05T17:29:48.026Z,41.80
2019-05-05T17:32:35.818Z,42.30
2019-05-05T17:35:24.035Z,42.20
2019-05-05T17:38:13.883Z,42.60
2019-05-05T17:41:03.733Z,44.40
2019-05-05T17:43:54.210Z,45.30
2019-05-05T17:47:00.576Z,45.80
2019-05-05T17:49:55.946Z,45.80
2019-05-05T17:52:45.335Z,45.80
2019-05-05T17:55:35.096Z,46.30
2019-05-05T17:58:24.705Z,47.00
2019-05-05T18:01:13.249Z,46.80
2019-05-05T18:04:00.877Z,47.50
2019-05-05T18:06:53.672Z,48.10
2019-05-05T18:10:01.637Z,49.20
2019-05-05T18:12:54.353Z,50.70
2019-05-05T18:15:49.679Z,51.30
2019-05-05T18:18:37.456Z,50.30
2019-05-05T18:21:28.648Z,50.40
2019-05-05T18:24:15.341Z,52.30
2019-05-05T18:27:04.548Z,52.60
2019-05-05T18:29:54.366Z,52.90
2019-05-05T18:32:41.821Z,54.20
2019-05-05T18:35:29.726Z,54.10
2019-05-05T18:38:17.386Z,54.20
2019-05-05T18:41:06.953Z,54.40
2019-05-05T18:43:56.181Z,54.70
2019-05-05T18:46:43.948Z,55.50
2019-05-05T18:49:33.614Z,55.20
2019-05-05T18:52:21.593Z,55.70
2019-05-05T18:55:09.437Z,56.20
2019-05-05T18:57:57.170Z,54.60
2019-05-05T19:01:03.901Z,55.00
2019-05-05T19:03:54.469Z,55.60
2019-05-05T19:06:47.145Z,56.90
2019-05-05T19:09:34.778Z,57.20
2019-05-05T19:12:24.339Z,57.70
2019-05-05T19:15:13.684Z,58.20
2019-05-05T19:18:01.785Z,58.80
2019-05-05T19:20:54.044Z,58.40
2019-05-05T19:23:40.789Z,58.40
2019-05-05T19:26:28.790Z,60.30
2019-05-05T19:29:16.530Z,59.40
2019-05-05T19:32:04.221Z,59.60
2019-05-05T19:34:54.218Z,61.00
2019-05-05T19:37:41.501Z,60.00
2019-05-05T19:40:29.580Z,59.90
2019-05-05T19:43:17.193Z,60.50
2019-05-05T19:46:06.829Z,59.20
2019-05-05T19:49:14.589Z,59.70
2019-05-05T19:52:05.639Z,59.70
2019-05-05T19:54:51.433Z,60.60
2019-05-05T19:57:39.087Z,65.70
2019-05-05T20:00:26.893Z,66.10
2019-05-05T20:03:14.897Z,63.80
2019-05-05T20:06:04.636Z,69.60
2019-05-05T20:08:53.681Z,70.20
2019-05-05T20:11:43.558Z,71.40
2019-05-05T20:14:31.260Z,70.80
2019-05-05T20:17:29.808Z,71.80
2019-05-05T20:20:17.823Z,73.50
2019-05-05T20:23:05.424Z,73.10
2019-05-05T20:25:53.767Z,74.40
2019-05-05T20:28:42.940Z,74.40
2019-05-05T20:31:30.909Z,74.90
2019-05-05T20:34:24.279Z,76.40
2019-05-05T20:37:14.267Z,77.00
2019-05-05T20:40:03.976Z,76.00
2019-05-05T20:42:54.114Z,76.60
2019-05-05T20:45:41.697Z,78.40
2019-05-05T20:48:29.505Z,74.80
2019-05-05T20:51:17.077Z,74.90
2019-05-05T20:54:04.985Z,73.80
2019-05-05T20:56:53.997Z,74.40
2019-05-05T20:59:42.095Z,76.10
2019-05-05T21:02:29.723Z,74.90
2019-05-05T21:05:17.598Z,75.80
2019-05-05T21:08:05.537Z,72.40
2019-05-05T21:10:53.766Z,73.30
2019-05-05T21:13:41.873Z,72.90
2019-05-05T21:16:29.737Z,73.30
2019-05-05T21:19:17.757Z,73.70
2019-05-05T21:22:23.788Z,73.80
2019-05-05T21:25:29.744Z,72.90
2019-05-05T21:28:17.753Z,73.70
2019-05-05T21:31:05.628Z,74.70
2019-05-05T21:33:54.899Z,74.80
2019-05-05T21:36:44.766Z,76.30
2019-05-05T21:39:32.265Z,77.00
2019-05-05T21:42:20.017Z,76.50
2019-05-05T21:45:07.717Z,75.50
2019-05-05T21:47:55.498Z,75.30
2019-05-05T21:50:54.167Z,75.70
2019-05-05T21:53:43.574Z,75.30
2019-05-05T21:56:36.077Z,74.90
2019-05-05T21:59:24.261Z,74.40
2019-05-05T22:02:12.540Z,74.90
2019-05-05T22:05:00.532Z,75.50
2019-05-05T22:07:48.405Z,75.20
2019-05-05T22:10:36.317Z,75.90
2019-05-05T22:13:24.544Z,76.30
2019-05-05T22:16:13.641Z,77.50
2019-05-05T22:19:03.674Z,77.30
2019-05-05T22:22:05.474Z,77.50
2019-05-05T22:24:54.126Z,78.00
2019-05-05T22:27:44.140Z,78.00
2019-05-05T22:30:34.336Z,78.70
2019-05-05T22:33:21.429Z,78.40
2019-05-05T22:36:09.214Z,78.10
2019-05-05T22:38:56.860Z,78.70
2019-05-05T22:41:44.971Z,78.70
2019-05-05T22:44:33.883Z,78.30
2019-05-05T22:47:23.628Z,78.70
2019-05-05T22:50:13.876Z,78.90
2019-05-05T22:53:01.623Z,78.80
2019-05-05T22:55:49.672Z,77.90
2019-05-05T22:58:37.516Z,78.60
2019-05-05T23:01:25.249Z,78.70
2019-05-05T23:04:14.845Z,80.00
2019-05-05T23:07:07.417Z,79.30
2019-05-05T23:09:55.409Z,78.20
2019-05-05T23:12:43.990Z,78.10
2019-05-05T23:15:34.265Z,77.80
2019-05-05T23:18:30.540Z,78.10
2019-05-05T23:21:24.758Z,78.70
2019-05-05T23:24:23.831Z,78.30
2019-05-05T23:27:14.525Z,77.60
2019-05-05T23:30:02.181Z,76.80
2019-05-05T23:32:50.200Z,77.40
2019-05-05T23:35:38.062Z,77.70
2019-05-05T23:38:25.671Z,76.60
2019-05-05T23:41:14.605Z,77.20
2019-05-05T23:44:03.655Z,77.20
2019-05-05T23:46:53.580Z,79.20
2019-05-05T23:49:41.115Z,79.50
2019-05-05T23:52:28.977Z,79.90
2019-05-05T23:55:16.692Z,80.60
2019-05-05T23:58:04.272Z,80.40
